Time;durP1;ratioP1;P1;durP2;ratioP2;P2;SDS_P1;SDS_P2;PMS_P1;PMS_P2;Temp;Humidity;BMP_temperature;BMP_pressure;BME280_temperature;BME280_humidity;BME280_pressure;Samples;Min_cycle;Max_cycle;Signal;HPM_P1;HPM_P2
2021/01/05 00:07:18;;;;;;;0.73;0.73;;;3.00;99.90;;;;;;20457909;28;20307;-66
2021/01/05 00:17:22;;;;;;;0.43;0.43;;;3.10;99.90;;;;;;20452310;28;20232;-66
2021/01/05 00:27:26;;;;;;;0.57;0.50;;;3.70;99.90;;;;;;20454845;28;21073;-67
2021/01/05 00:37:30;;;;;;;0.33;0.30;;;3.70;99.90;;;;;;20405147;28;20197;-66
2021/01/05 00:47:34;;;;;;;0.73;0.53;;;3.30;99.90;;;;;;20454535;28;20231;-66
2021/01/05 00:57:37;;;;;;;1.37;1.27;;;3.60;99.90;;;;;;20453203;28;20224;-65
2021/01/05 01:07:40;;;;;;;1.03;1.03;;;3.50;99.90;;;;;;20399752;23;20241;-73
2021/01/05 01:17:44;;;;;;;2.20;1.23;;;3.30;99.90;;;;;;20372082;29;20202;-73
2021/01/05 01:27:47;;;;;;;1.43;0.83;;;3.10;99.90;;;;;;20336564;29;20241;-74
2021/01/05 01:37:50;;;;;;;0.20;0.10;;;3.30;99.90;;;;;;20293660;29;20210;-76
2021/01/05 01:47:54;;;;;;;9.57;2.43;;;3.30;99.90;;;;;;20298737;29;20230;-74
2021/01/05 01:58:41;;;;;;;2.30;0.47;;;3.40;99.90;;;;;;20308016;29;20206;-73
2021/01/05 02:08:59;;;;;;;0.53;0.50;;;3.50;99.90;;;;;;20239559;29;20682;-74
2021/01/05 02:19:10;;;;;;;0.37;0.37;;;3.60;99.90;;;;;;20356529;29;20209;-75
2021/01/05 02:29:19;;;;;;;0.37;0.33;;;3.50;99.90;;;;;;20390174;29;20230;-74
2021/01/05 02:40:07;;;;;;;0.20;0.20;;;3.20;99.90;;;;;;20323216;29;20203;-73
2021/01/05 02:50:36;;;;;;;0.73;0.73;;;3.50;99.90;;;;;;20308261;29;20225;-74
2021/01/05 03:01:27;;;;;;;0.57;0.57;;;3.70;99.90;;;;;;20308691;29;20706;-74
2021/01/05 03:11:37;;;;;;;0.70;0.70;;;3.50;99.90;;;;;;20253226;29;20239;-74
2021/01/05 03:21:43;;;;;;;0.27;0.20;;;3.50;99.90;;;;;;20305072;29;20295;-73
2021/01/05 03:31:51;;;;;;;0.30;0.30;;;3.30;99.90;;;;;;20308226;29;20263;-71
2021/01/05 03:41:53;;;;;;;0.20;0.20;;;3.40;99.90;;;;;;20304846;29;20748;-71
2021/01/05 03:51:57;;;;;;;0.20;0.10;;;3.50;99.90;;;;;;20303052;29;20582;-71
2021/01/05 04:02:00;;;;;;;0.20;0.10;;;3.50;99.90;;;;;;20304193;29;20754;-73
2021/01/05 04:12:04;;;;;;;1.50;0.70;;;3.40;99.90;;;;;;20300983;29;20245;-73
2021/01/05 04:22:07;;;;;;;0.40;0.30;;;3.50;99.90;;;;;;20303142;29;20891;-74
2021/01/05 04:32:11;;;;;;;0.77;0.77;;;3.30;99.90;;;;;;20299933;29;20231;-73
2021/01/05 04:42:19;;;;;;;0.60;0.60;;;3.30;99.90;;;;;;20300594;29;20569;-73
2021/01/05 04:52:31;;;;;;;0.87;0.70;;;3.00;99.90;;;;;;20298596;29;20239;-73
2021/01/05 05:02:45;;;;;;;0.77;0.77;;;3.20;99.90;;;;;;20298008;29;20304;-73
2021/01/05 05:12:58;;;;;;;0.60;0.50;;;3.40;99.90;;;;;;20326184;29;20229;-73
2021/01/05 05:23:23;;;;;;;0.87;0.77;;;3.60;99.90;;;;;;20375537;29;20582;-72
2021/01/05 05:33:29;;;;;;;1.83;1.47;;;3.50;99.90;;;;;;20300597;29;20582;-72
2021/01/05 05:43:42;;;;;;;1.20;0.60;;;3.30;99.90;;;;;;20296588;29;20300;-73
2021/01/05 05:53:49;;;;;;;0.70;0.70;;;3.10;99.90;;;;;;20295686;29;20233;-72
2021/01/05 06:03:51;;;;;;;12.10;1.03;;;3.00;99.90;;;;;;20297928;29;20226;-74
2021/01/05 06:13:55;;;;;;;1.37;0.60;;;3.10;99.90;;;;;;20296404;29;20730;-72
2021/01/05 06:23:57;;;;;;;0.53;0.40;;;2.90;99.90;;;;;;20296749;29;20198;-70
2021/01/05 06:34:01;;;;;;;0.43;0.43;;;3.00;99.90;;;;;;20294141;29;20606;-73
2021/01/05 06:44:04;;;;;;;0.80;0.80;;;3.20;99.90;;;;;;20305224;29;20203;-70
2021/01/05 06:54:08;;;;;;;0.30;0.30;;;3.20;99.90;;;;;;20306652;29;20234;-71
2021/01/05 07:04:10;;;;;;;0.20;0.20;;;3.30;99.90;;;;;;20315560;29;20405;-70
2021/01/05 07:14:15;;;;;;;0.20;0.20;;;3.40;99.90;;;;;;20299979;29;20226;-70
2021/01/05 07:24:17;;;;;;;0.37;0.30;;;3.50;99.90;;;;;;20303097;29;20455;-72
2021/01/05 07:34:21;;;;;;;1.40;0.60;;;3.70;99.90;;;;;;20337534;29;20240;-70
2021/01/05 07:44:28;;;;;;;0.43;0.43;;;3.70;99.90;;;;;;20409446;29;20275;-79
2021/01/05 07:54:35;;;;;;;5.20;3.47;;;3.70;99.90;;;;;;20408224;28;20240;-76
2021/01/05 08:04:40;;;;;;;4.73;4.33;;;3.60;99.90;;;;;;20415063;28;20236;-74
2021/01/05 08:14:44;;;;;;;1.13;1.13;;;3.50;99.90;;;;;;20374189;29;20645;-73
2021/01/05 08:24:55;;;;;;;34.93;3.40;;;3.40;99.90;;;;;;20375869;29;20201;-74
2021/01/05 08:35:00;;;;;;;2.40;2.23;;;3.10;99.90;;;;;;20441095;23;20605;-73
2021/01/05 08:45:03;;;;;;;2.40;2.20;;;3.10;99.90;;;;;;20414373;28;20667;-73
2021/01/05 08:55:08;;;;;;;5.00;1.80;;;3.10;99.90;;;;;;20470393;28;20490;-72
2021/01/05 09:05:12;;;;;;;1.73;1.17;;;3.40;99.90;;;;;;20475704;28;20251;-72
2021/01/05 09:15:19;;;;;;;1.10;0.73;;;3.90;99.90;;;;;;20451625;29;20236;-72
2021/01/05 09:25:22;;;;;;;2.93;0.50;;;4.40;99.90;;;;;;20495980;28;20646;-73
2021/01/05 09:35:26;;;;;;;0.57;0.57;;;4.80;99.90;;;;;;20468509;28;20259;-73
2021/01/05 09:45:29;;;;;;;2.23;1.50;;;5.70;99.90;;;;;;20467742;28;20204;-71
2021/01/05 09:55:34;;;;;;;1.43;1.20;;;6.10;99.90;;;;;;20529822;28;20315;-72
2021/01/05 10:05:39;;;;;;;0.40;0.40;;;6.00;99.90;;;;;;20530445;28;20335;-73
2021/01/05 10:15:43;;;;;;;1.03;0.93;;;6.20;99.90;;;;;;20536639;28;20239;-73
2021/01/05 10:25:47;;;;;;;0.20;0.10;;;7.00;99.90;;;;;;20544106;28;20341;-73
2021/01/05 10:35:51;;;;;;;3.03;1.77;;;7.80;99.90;;;;;;20484839;28;20232;-72
2021/01/05 10:45:54;;;;;;;0.87;0.43;;;9.30;99.90;;;;;;20723517;23;20332;-69
2021/01/05 10:55:57;;;;;;;0.37;0.37;;;10.10;99.90;;;;;;20459957;29;20225;-69
2021/01/05 11:06:01;;;;;;;0.60;0.30;;;10.60;99.90;;;;;;20463191;29;20239;-71
2021/01/05 11:16:05;;;;;;;1.60;0.67;;;10.90;99.90;;;;;;20476454;28;20311;-69
2021/01/05 11:26:09;;;;;;;0.40;0.40;;;11.40;99.90;;;;;;20533676;28;20875;-69
2021/01/05 11:36:29;;;;;;;0.30;0.30;;;11.70;99.90;;;;;;20490659;28;20495;-69
2021/01/05 11:46:32;;;;;;;1.13;0.93;;;11.90;99.90;;;;;;20477567;28;20378;-67
2021/01/05 11:56:36;;;;;;;0.27;0.17;;;11.80;99.90;;;;;;20498286;28;20429;-68
2021/01/05 12:06:39;;;;;;;0.60;0.53;;;12.50;99.90;;;;;;20505219;28;20248;-67
2021/01/05 12:16:45;;;;;;;1.17;0.93;;;13.00;99.90;;;;;;20448485;29;20236;-66
2021/01/05 12:26:48;;;;;;;0.50;0.40;;;14.30;99.90;;;;;;20467582;28;20216;-68
2021/01/05 12:36:52;;;;;;;0.20;0.10;;;13.20;99.90;;;;;;20450810;28;20243;-67
2021/01/05 12:46:57;;;;;;;0.20;0.20;;;12.10;99.90;;;;;;20452290;28;20585;-67
2021/01/05 12:57:03;;;;;;;0.20;0.10;;;10.90;99.90;;;;;;20455309;28;20224;-67
2021/01/05 13:07:05;;;;;;;0.30;0.30;;;11.30;99.90;;;;;;20454506;28;20204;-68
2021/01/05 13:17:11;;;;;;;0.20;0.20;;;15.10;99.90;;;;;;20487753;28;20363;-68
2021/01/05 13:27:13;;;;;;;0.20;0.10;;;14.10;99.90;;;;;;20451678;28;20200;-67
2021/01/05 13:37:19;;;;;;;0.20;0.10;;;12.10;99.90;;;;;;20477453;28;20983;-67
2021/01/05 13:47:23;;;;;;;0.50;0.50;;;11.10;99.90;;;;;;20530304;28;20232;-69
2021/01/05 13:57:29;;;;;;;0.27;0.27;;;10.70;99.90;;;;;;20546536;28;20196;-69
2021/01/05 14:07:32;;;;;;;0.20;0.10;;;10.60;99.90;;;;;;20543592;28;20242;-68
2021/01/05 14:17:35;;;;;;;0.57;0.27;;;10.40;99.90;;;;;;20544102;28;20223;-69
2021/01/05 14:27:37;;;;;;;0.20;0.10;;;10.20;99.90;;;;;;20485702;28;20251;-68
2021/01/05 14:37:41;;;;;;;0.97;0.53;;;14.10;99.90;;;;;;20461932;29;20201;-69
2021/01/05 14:47:45;;;;;;;0.33;0.33;;;15.50;99.90;;;;;;20544503;28;20580;-70
2021/01/05 14:57:49;;;;;;;0.47;0.30;;;15.20;99.90;;;;;;20517300;28;20201;-67
2021/01/05 15:07:54;;;;;;;0.53;0.27;;;13.90;99.90;;;;;;20460205;29;20217;-67
2021/01/05 15:18:00;;;;;;;0.20;0.10;;;11.40;99.90;;;;;;20476049;29;20213;-67
2021/01/05 15:28:03;;;;;;;0.20;0.20;;;10.30;99.90;;;;;;20459885;29;20228;-67
2021/01/05 15:38:06;;;;;;;1.83;1.20;;;9.70;99.90;;;;;;20466677;29;20205;-67
2021/01/05 15:48:12;;;;;;;0.40;0.20;;;9.60;99.90;;;;;;20458106;28;20251;-69
2021/01/05 15:58:15;;;;;;;0.53;0.53;;;9.00;99.90;;;;;;20455922;28;20557;-66
2021/01/05 16:08:17;;;;;;;0.97;0.80;;;8.80;99.90;;;;;;20454894;28;20278;-68
2021/01/05 16:18:22;;;;;;;1.90;0.83;;;8.60;99.90;;;;;;20454181;29;20217;-64
2021/01/05 16:28:25;;;;;;;0.20;0.13;;;8.40;99.90;;;;;;20455483;29;20267;-69
2021/01/05 16:38:30;;;;;;;0.20;0.13;;;8.60;99.90;;;;;;20452150;29;20529;-67
2021/01/05 16:48:33;;;;;;;0.20;0.10;;;8.60;99.90;;;;;;20452921;29;20387;-68
2021/01/05 16:58:36;;;;;;;0.20;0.20;;;8.40;99.90;;;;;;20454302;29;20200;-67
2021/01/05 17:08:39;;;;;;;0.50;0.50;;;8.10;99.90;;;;;;20474980;29;20264;-68
2021/01/05 17:18:43;;;;;;;0.30;0.30;;;8.00;99.90;;;;;;20452269;29;20204;-68
2021/01/05 17:28:45;;;;;;;0.40;0.40;;;7.90;99.90;;;;;;20448094;28;20250;-68
2021/01/05 17:38:49;;;;;;;3.43;1.27;;;7.50;99.90;;;;;;20388282;29;20276;-66
2021/01/05 17:48:51;;;;;;;0.40;0.40;;;7.30;99.90;;;;;;20434475;29;20252;-67
2021/01/05 17:58:55;;;;;;;3.13;1.40;;;6.90;99.90;;;;;;20451723;29;20200;-67
2021/01/05 18:08:58;;;;;;;0.50;0.50;;;6.40;99.90;;;;;;20448954;29;20693;-68
2021/01/05 18:19:02;;;;;;;1.20;1.20;;;6.10;99.90;;;;;;20450875;29;20204;-67
2021/01/05 18:29:07;;;;;;;2.77;2.27;;;5.50;99.90;;;;;;20470640;28;20216;-67
2021/01/05 18:39:10;;;;;;;2.23;1.00;;;5.60;99.90;;;;;;20421686;28;20201;-67
2021/01/05 18:49:14;;;;;;;1.17;1.17;;;5.50;99.90;;;;;;20383926;29;20332;-67
2021/01/05 18:59:19;;;;;;;1.57;1.47;;;5.50;99.90;;;;;;20412848;28;20540;-66
2021/01/05 19:09:21;;;;;;;0.87;0.87;;;5.50;99.90;;;;;;20463638;28;20310;-68
2021/01/05 19:19:25;;;;;;;1.50;0.97;;;5.40;99.90;;;;;;20492828;28;20646;-67
2021/01/05 19:29:29;;;;;;;0.73;0.73;;;5.80;99.90;;;;;;20492543;28;20220;-68
2021/01/05 19:39:32;;;;;;;4.33;0.83;;;5.90;99.90;;;;;;20451255;29;20201;-70
2021/01/05 19:49:35;;;;;;;1.57;1.57;;;5.40;99.90;;;;;;20456297;28;20244;-69
2021/01/05 19:59:40;;;;;;;0.90;0.90;;;5.10;99.90;;;;;;20462220;29;20619;-68
2021/01/05 20:09:43;;;;;;;1.63;0.93;;;4.80;99.90;;;;;;20456910;28;20224;-68
2021/01/05 20:19:47;;;;;;;2.90;2.10;;;4.80;99.90;;;;;;20472282;28;20204;-69
2021/01/05 20:29:50;;;;;;;0.87;0.63;;;4.90;99.90;;;;;;20457016;29;20768;-69
2021/01/05 20:39:53;;;;;;;2.40;2.23;;;4.90;99.90;;;;;;20384820;29;20296;-68
2021/01/05 20:49:56;;;;;;;1.47;0.87;;;4.70;99.90;;;;;;20374951;29;20336;-69
2021/01/05 20:59:59;;;;;;;2.10;1.30;;;4.50;99.90;;;;;;20375783;29;20205;-67
2021/01/05 21:10:03;;;;;;;2.60;1.53;;;4.30;99.90;;;;;;20376390;29;20229;-68
2021/01/05 21:20:12;;;;;;;0.53;0.53;;;4.20;99.90;;;;;;20376569;29;20204;-69
2021/01/05 21:30:19;;;;;;;3.90;3.37;;;4.10;99.90;;;;;;20374142;29;20910;-68
2021/01/05 21:40:24;;;;;;;9.40;2.97;;;3.90;99.90;;;;;;20448855;29;20199;-66
2021/01/05 21:50:29;;;;;;;2.73;1.77;;;3.50;99.90;;;;;;20455921;28;20553;-68
2021/01/05 22:00:35;;;;;;;1.70;1.03;;;3.20;99.90;;;;;;20452399;29;20684;-68
2021/01/05 22:10:41;;;;;;;3.73;1.73;;;3.10;99.90;;;;;;20461922;28;20599;-67
2021/01/05 22:20:45;;;;;;;3.47;1.43;;;3.10;99.90;;;;;;20465055;28;20204;-67
2021/01/05 22:30:48;;;;;;;1.83;1.73;;;3.10;99.90;;;;;;20482688;28;20232;-68
2021/01/05 22:40:53;;;;;;;2.13;1.70;;;2.90;99.90;;;;;;20385226;29;20212;-67
2021/01/05 22:50:55;;;;;;;2.53;1.47;;;2.90;99.90;;;;;;20382425;29;20468;-69
2021/01/05 23:01:01;;;;;;;2.70;1.37;;;2.90;99.90;;;;;;20389078;29;20742;-68
2021/01/05 23:11:06;;;;;;;1.00;0.57;;;2.90;99.90;;;;;;20382517;29;20252;-67
2021/01/05 23:21:12;;;;;;;1.23;1.13;;;3.10;99.90;;;;;;20382244;29;20197;-67
2021/01/05 23:31:16;;;;;;;1.10;0.83;;;3.10;99.90;;;;;;20381747;29;20239;-67
2021/01/05 23:41:19;;;;;;;14.43;1.53;;;3.10;99.90;;;;;;20381738;29;20197;-66
2021/01/05 23:51:26;;;;;;;1.47;1.37;;;3.10;99.90;;;;;;20380501;29;20730;-67
